Time;durP1;ratioP1;P1;durP2;ratioP2;P2;SDS_P1;SDS_P2;PMS_P1;PMS_P2;Temp;Humidity;BMP_temperature;BMP_pressure;BME280_temperature;BME280_humidity;BME280_pressure;Samples;Min_cycle;Max_cycle;Signal;HPM_P1;HPM_P2
2023/04/21 00:00:35;;;;;;;13.80;3.60;;;;;;;9.69;68.54;99553.76;105364;1260;65302;-68
2023/04/21 00:03:04;;;;;;;10.50;3.20;;;;;;;9.71;68.54;99551.51;105418;1260;59544;-69
2023/04/21 00:05:32;;;;;;;8.80;3.10;;;;;;;9.68;68.75;99551.06;105447;1258;59691;-71
2023/04/21 00:08:01;;;;;;;12.80;3.10;;;;;;;9.68;68.82;99547.18;105589;1260;66220;-69
2023/04/21 00:10:29;;;;;;;11.70;3.40;;;;;;;9.70;68.74;99543.98;105465;1257;59944;-68
2023/04/21 00:12:57;;;;;;;9.20;3.50;;;;;;;9.72;68.81;99541.93;105529;1257;65551;-69
2023/04/21 00:15:26;;;;;;;14.80;3.60;;;;;;;9.81;68.55;99537.45;105719;1258;59740;-69
2023/04/21 00:17:54;;;;;;;12.50;3.40;;;;;;;9.87;68.29;99534.46;105720;1254;59707;-68
2023/04/21 00:20:22;;;;;;;11.00;3.40;;;;;;;9.84;68.46;99531.04;105835;1253;65601;-69
2023/04/21 00:22:55;;;;;;;9.40;3.10;;;;;;;9.78;68.55;99529.51;105705;1254;59950;-68
2023/04/21 00:25:23;;;;;;;10.00;3.30;;;;;;;9.74;68.65;99526.11;105711;1255;64255;-69
2023/04/21 00:27:51;;;;;;;10.30;3.50;;;;;;;9.72;68.60;99527.36;105729;1259;59503;-69
2023/04/21 00:30:20;;;;;;;9.80;3.60;;;;;;;9.73;68.63;99523.69;105765;1254;59999;-69
2023/04/21 00:32:48;;;;;;;13.70;3.90;;;;;;;9.80;68.45;99521.56;105564;1256;65925;-68
2023/04/21 00:35:16;;;;;;;11.70;3.50;;;;;;;9.82;68.32;99518.36;105622;1260;59682;-68
2023/04/21 00:37:45;;;;;;;13.90;3.80;;;;;;;9.83;68.24;99514.38;105983;1254;65819;-69
2023/04/21 00:40:13;;;;;;;12.90;3.00;;;;;;;9.83;68.20;99513.84;105621;1254;59800;-69
2023/04/21 00:42:42;;;;;;;10.90;3.50;;;;;;;9.85;68.14;99511.79;105627;1259;59545;-69
2023/04/21 00:45:10;;;;;;;14.80;3.50;;;;;;;9.86;68.06;99509.23;105690;1260;65727;-70
2023/04/21 00:47:41;;;;;;;10.30;3.20;;;;;;;9.86;68.06;99511.34;105662;1254;59927;-69
2023/04/21 00:50:11;;;;;;;9.30;3.20;;;;;;;9.86;68.02;99508.52;105604;1254;64623;-69
2023/04/21 00:52:40;;;;;;;14.20;3.50;;;;;;;9.87;68.09;99508.78;105548;1254;59650;-68
2023/04/21 00:55:08;;;;;;;10.80;2.90;;;;;;;9.86;68.05;99502.87;105378;1254;60860;-68
2023/04/21 00:57:37;;;;;;;12.10;2.70;;;;;;;9.85;67.99;99500.17;105768;1254;65966;-68
2023/04/21 01:00:07;;;;;;;10.40;2.90;;;;;;;9.85;67.97;99500.48;105633;1254;60100;-68
2023/04/21 01:02:38;;;;;;;10.20;3.20;;;;;;;9.85;68.06;99494.05;105582;1254;64581;-68
2023/04/21 01:05:08;;;;;;;7.70;3.20;;;;;;;9.83;68.06;99492.22;105600;1254;59631;-67
2023/04/21 01:07:38;;;;;;;8.70;3.00;;;;;;;9.82;68.02;99489.52;105408;1261;59715;-68
2023/04/21 01:10:07;;;;;;;12.50;2.70;;;;;;;9.82;68.06;99492.49;105384;1260;65898;-68
2023/04/21 01:12:46;;;;;;;8.60;2.80;;;;;;;9.83;68.15;99491.25;105368;1259;59743;-68
2023/04/21 01:15:15;;;;;;;16.90;3.30;;;;;;;9.83;68.20;99489.91;105603;1253;65845;-71
2023/04/21 01:17:44;;;;;;;10.60;2.90;;;;;;;9.85;68.23;99485.21;107852;1254;59704;-69
2023/04/21 01:20:14;;;;;;;12.80;3.10;;;;;;;9.86;68.20;99481.80;106416;1254;59631;-69
2023/04/21 01:22:46;;;;;;;8.40;3.30;;;;;;;9.86;68.16;99480.58;106243;1254;66110;-75
2023/04/21 01:25:16;;;;;;;9.80;3.10;;;;;;;9.86;68.22;99475.44;106533;1253;59888;-69
2023/04/21 01:27:45;;;;;;;8.70;2.80;;;;;;;9.85;68.27;99473.75;106155;1254;65337;-66
2023/04/21 01:30:13;;;;;;;11.60;3.00;;;;;;;9.85;68.28;99473.97;105629;1254;59545;-68
2023/04/21 01:32:42;;;;;;;10.80;2.90;;;;;;;9.85;68.30;99470.48;105603;1254;59611;-69
2023/04/21 01:35:10;;;;;;;14.10;3.40;;;;;;;9.83;68.32;99471.09;105229;1254;65014;-68
2023/04/21 01:37:39;;;;;;;13.10;3.50;;;;;;;9.83;68.41;99468.67;105737;1257;59631;-69
2023/04/21 01:40:08;;;;;;;12.10;3.10;;;;;;;9.83;68.40;99467.42;105640;1254;65414;-67
2023/04/21 01:42:39;;;;;;;11.60;3.10;;;;;;;9.83;68.42;99463.77;105363;1254;59571;-67
2023/04/21 01:45:08;;;;;;;9.70;2.50;;;;;;;9.83;68.46;99458.88;105662;1260;59653;-68
2023/04/21 01:47:37;;;;;;;12.20;3.20;;;;;;;9.82;68.56;99458.63;105698;1262;65340;-70
2023/04/21 01:50:07;;;;;;;12.40;3.10;;;;;;;9.81;68.56;99460.66;105626;1258;59788;-68
2023/04/21 01:52:36;;;;;;;12.90;3.20;;;;;;;9.77;68.70;99457.29;105621;1255;65551;-68
2023/04/21 01:55:05;;;;;;;12.10;3.10;;;;;;;9.73;68.72;99463.20;105563;1253;59541;-67
2023/04/21 01:57:35;;;;;;;11.90;3.20;;;;;;;9.72;68.83;99462.92;105500;1254;59546;-68
2023/04/21 02:00:04;;;;;;;16.20;3.20;;;;;;;9.72;68.84;99456.77;105567;1254;64654;-68
2023/04/21 02:02:43;;;;;;;13.60;3.40;;;;;;;9.72;68.92;99455.91;105458;1254;60038;-67
2023/04/21 02:05:13;;;;;;;10.00;3.00;;;;;;;9.73;68.91;99453.58;105698;1254;65557;-68
2023/04/21 02:07:41;;;;;;;15.00;3.40;;;;;;;9.73;68.93;99449.33;105827;1254;59542;-68
2023/04/21 02:10:10;;;;;;;11.70;3.50;;;;;;;9.73;69.04;99452.18;105649;1254;59630;-69
2023/04/21 02:12:39;;;;;;;9.00;3.20;;;;;;;9.71;69.13;99452.16;105630;1254;66035;-68
2023/04/21 02:15:10;;;;;;;9.50;3.40;;;;;;;9.71;69.11;99448.17;106032;1254;59538;-67
2023/04/21 02:17:41;;;;;;;8.90;3.30;;;;;;;9.72;69.19;99445.24;105711;1254;64407;-70
2023/04/21 02:20:11;;;;;;;12.90;3.70;;;;;;;9.71;69.20;99445.31;105631;1259;59625;-69
2023/04/21 02:22:40;;;;;;;12.30;3.70;;;;;;;9.69;69.40;99448.34;105672;1257;59709;-69
2023/04/21 02:25:08;;;;;;;11.60;3.00;;;;;;;9.67;69.49;99447.09;105731;1254;65938;-68
2023/04/21 02:27:39;;;;;;;10.40;3.20;;;;;;;9.68;69.46;99444.57;105490;1254;59622;-68
2023/04/21 02:30:08;;;;;;;12.20;3.40;;;;;;;9.68;69.48;99444.40;105776;1254;65381;-68
2023/04/21 02:32:37;;;;;;;8.50;3.20;;;;;;;9.68;69.57;99442.29;105679;1254;59724;-68
2023/04/21 02:35:06;;;;;;;12.70;3.20;;;;;;;9.69;69.50;99440.63;105846;1254;60121;-68
2023/04/21 02:37:35;;;;;;;9.40;3.40;;;;;;;9.69;69.49;99436.91;105576;1254;65661;-68
2023/04/21 02:40:05;;;;;;;11.90;3.00;;;;;;;9.70;69.49;99434.21;105690;1258;59760;-68
2023/04/21 02:42:34;;;;;;;14.70;3.10;;;;;;;9.69;69.63;99435.48;105684;1254;64458;-69
2023/04/21 02:45:03;;;;;;;12.10;3.00;;;;;;;9.69;69.77;99437.24;105626;1253;59628;-72
2023/04/21 02:47:31;;;;;;;11.20;3.50;;;;;;;9.71;69.75;99438.29;105598;1254;59656;-68
2023/04/21 02:50:00;;;;;;;10.00;3.20;;;;;;;9.72;69.77;99437.11;105859;1254;65661;-67
2023/04/21 02:52:28;;;;;;;8.60;2.90;;;;;;;9.72;69.76;99436.39;105477;1260;59863;-67
2023/04/21 02:54:56;;;;;;;13.10;3.00;;;;;;;9.73;69.84;99435.48;105904;1254;65468;-67
2023/04/21 02:57:25;;;;;;;9.50;2.90;;;;;;;9.73;69.92;99432.95;105966;1253;60414;-68
2023/04/21 02:59:53;;;;;;;12.40;3.00;;;;;;;9.74;69.85;99432.04;105793;1254;60494;-72
2023/04/21 03:02:22;;;;;;;10.30;3.10;;;;;;;9.75;69.92;99433.02;105896;1254;64838;-68
2023/04/21 03:04:50;;;;;;;13.90;3.00;;;;;;;9.75;69.88;99435.45;105737;1254;60542;-69
2023/04/21 03:07:20;;;;;;;10.50;3.20;;;;;;;9.75;69.82;99431.38;105734;1254;65562;-69
2023/04/21 03:09:48;;;;;;;17.50;3.40;;;;;;;9.74;69.85;99431.81;105619;1254;60472;-69
2023/04/21 03:12:16;;;;;;;10.30;3.10;;;;;;;9.73;69.91;99431.04;105752;1256;60345;-68
2023/04/21 03:14:44;;;;;;;11.00;2.80;;;;;;;9.73;69.90;99433.67;105823;1256;66692;-69
2023/04/21 03:17:12;;;;;;;11.40;3.20;;;;;;;9.73;69.93;99432.78;105735;1254;60406;-68
2023/04/21 03:19:41;;;;;;;12.70;4.00;;;;;;;9.74;69.86;99430.27;105751;1254;65483;-67
2023/04/21 03:22:09;;;;;;;10.60;2.80;;;;;;;9.74;69.98;99429.73;105333;1253;60434;-69
2023/04/21 03:24:37;;;;;;;13.80;3.20;;;;;;;9.73;70.04;99429.29;105554;1254;60603;-70
2023/04/21 03:27:06;;;;;;;16.20;3.60;;;;;;;9.73;70.08;99428.45;106422;1253;66462;-69
2023/04/21 03:29:36;;;;;;;13.10;3.50;;;;;;;9.73;70.16;99432.48;105952;1253;60398;-68
2023/04/21 03:32:05;;;;;;;17.70;3.80;;;;;;;9.73;70.14;99428.92;105705;1253;65604;-68
2023/04/21 03:34:33;;;;;;;10.90;3.20;;;;;;;9.74;70.05;99431.48;105485;1259;60387;-68
2023/04/21 03:37:04;;;;;;;11.40;3.20;;;;;;;9.75;70.14;99435.30;105813;1254;60475;-68
2023/04/21 03:39:32;;;;;;;14.70;4.00;;;;;;;9.75;70.21;99440.91;105558;1253;66760;-70
2023/04/21 03:42:01;;;;;;;14.00;3.90;;;;;;;9.76;70.17;99442.24;105601;1254;60438;-68
2023/04/21 03:44:29;;;;;;;11.70;3.50;;;;;;;9.76;70.24;99444.88;106008;1254;64917;-69
2023/04/21 03:46:59;;;;;;;9.70;3.20;;;;;;;9.76;70.19;99442.77;105889;1253;60472;-69
2023/04/21 03:49:27;;;;;;;12.50;3.70;;;;;;;9.76;70.24;99442.41;105710;1259;60475;-68
2023/04/21 03:51:55;;;;;;;14.60;3.30;;;;;;;9.77;70.27;99441.66;105644;1253;66502;-69
2023/04/21 03:54:24;;;;;;;11.50;3.80;;;;;;;9.77;70.30;99447.65;105871;1252;60491;-67
2023/04/21 03:56:52;;;;;;;11.90;4.00;;;;;;;9.77;70.34;99448.54;105976;1257;65338;-69
2023/04/21 03:59:20;;;;;;;11.40;3.00;;;;;;;9.76;70.35;99445.58;106186;1256;60527;-68
2023/04/21 04:01:48;;;;;;;14.20;3.60;;;;;;;9.77;70.37;99447.85;105812;1253;60463;-67
2023/04/21 04:04:16;;;;;;;10.50;3.20;;;;;;;9.79;70.48;99445.73;105883;1254;66747;-69
2023/04/21 04:06:45;;;;;;;11.00;3.60;;;;;;;9.79;70.38;99443.09;105687;1254;60545;-70
2023/04/21 04:09:14;;;;;;;12.90;3.40;;;;;;;9.77;70.44;99441.10;105325;1254;65892;-68
2023/04/21 04:11:42;;;;;;;11.40;2.90;;;;;;;9.77;70.42;99439.71;105709;1253;60373;-68
2023/04/21 04:14:10;;;;;;;11.10;3.20;;;;;;;9.78;70.47;99438.02;105854;1253;60475;-68
2023/04/21 04:16:38;;;;;;;9.90;3.40;;;;;;;9.80;70.66;99437.70;105677;1254;66812;-68
2023/04/21 04:19:06;;;;;;;13.00;3.60;;;;;;;9.80;70.62;99441.70;105834;1254;60542;-67
2023/04/21 04:21:35;;;;;;;14.50;3.60;;;;;;;9.82;70.74;99442.61;105599;1254;65597;-73
2023/04/21 04:24:04;;;;;;;15.00;3.80;;;;;;;9.84;70.81;99440.79;105838;1254;60312;-68
2023/04/21 04:26:32;;;;;;;11.80;3.60;;;;;;;9.86;70.80;99442.99;105676;1254;60539;-67
2023/04/21 04:29:01;;;;;;;13.70;3.60;;;;;;;9.86;70.77;99438.71;105715;1256;66396;-69
2023/04/21 04:31:29;;;;;;;14.10;3.80;;;;;;;9.86;70.74;99439.44;105808;1254;60462;-68
2023/04/21 04:33:57;;;;;;;10.30;3.60;;;;;;;9.86;70.83;99436.41;105751;1253;65735;-69
2023/04/21 04:36:27;;;;;;;19.90;4.00;;;;;;;9.86;70.84;99437.82;105952;1256;60371;-69
2023/04/21 04:38:55;;;;;;;10.40;4.00;;;;;;;9.88;70.93;99437.15;105843;1253;60428;-68
2023/04/21 04:41:23;;;;;;;14.90;4.00;;;;;;;9.91;71.01;99435.41;105701;1254;66439;-69
2023/04/21 04:43:52;;;;;;;13.90;3.70;;;;;;;9.94;70.90;99436.35;105655;1256;60473;-68
2023/04/21 04:46:20;;;;;;;12.30;3.20;;;;;;;9.98;70.90;99436.55;105689;1254;65304;-69
2023/04/21 04:48:48;;;;;;;16.10;3.70;;;;;;;9.99;70.77;99435.52;105813;1256;60428;-68
2023/04/21 04:51:16;;;;;;;10.60;3.40;;;;;;;10.00;70.79;99433.40;105623;1254;60473;-69
2023/04/21 04:53:45;;;;;;;15.80;3.60;;;;;;;9.99;70.86;99438.35;105624;1259;66733;-69
2023/04/21 04:56:13;;;;;;;13.00;3.60;;;;;;;10.01;70.82;99437.13;105590;1254;60504;-68
2023/04/21 04:58:41;;;;;;;14.10;3.50;;;;;;;10.03;70.70;99433.41;105813;1254;65553;-69
2023/04/21 05:01:14;;;;;;;11.20;3.60;;;;;;;10.04;70.62;99435.97;105715;1254;60498;-69
2023/04/21 05:03:43;;;;;;;12.30;3.10;;;;;;;10.07;70.62;99433.98;105591;1260;60510;-69
2023/04/21 05:06:12;;;;;;;9.30;3.40;;;;;;;10.10;70.51;99435.59;105741;1253;66704;-68
2023/04/21 05:08:41;;;;;;;11.10;3.20;;;;;;;10.16;70.40;99436.08;105944;1254;60469;-69
2023/04/21 05:11:10;;;;;;;9.80;3.50;;;;;;;10.14;70.30;99439.13;105765;1254;65699;-68
2023/04/21 05:13:39;;;;;;;10.90;3.20;;;;;;;10.12;70.31;99441.71;105753;1254;60501;-69
2023/04/21 05:16:09;;;;;;;13.80;3.40;;;;;;;10.12;70.26;99448.11;105955;1258;61191;-70
2023/04/21 05:18:38;;;;;;;11.70;3.10;;;;;;;10.12;70.23;99447.58;105732;1259;67474;-68
2023/04/21 05:21:06;;;;;;;14.40;3.20;;;;;;;10.16;70.21;99446.86;105786;1254;60549;-68
2023/04/21 05:23:34;;;;;;;12.50;3.40;;;;;;;10.23;70.00;99444.09;105735;1254;65366;-68
2023/04/21 05:26:03;;;;;;;11.90;3.30;;;;;;;10.26;69.90;99438.17;105667;1253;60367;-68
2023/04/21 05:28:32;;;;;;;12.20;3.10;;;;;;;10.26;69.87;99433.75;105707;1254;60482;-69
2023/04/21 05:31:02;;;;;;;11.30;3.10;;;;;;;10.23;69.94;99434.72;105722;1254;65418;-68
2023/04/21 05:33:31;;;;;;;9.90;3.00;;;;;;;10.21;69.93;99436.54;105717;1253;60532;-70
2023/04/21 05:36:00;;;;;;;12.40;3.20;;;;;;;10.21;70.00;99434.38;105995;1253;65279;-69
2023/04/21 05:38:29;;;;;;;10.40;3.10;;;;;;;10.22;69.98;99432.21;105900;1256;60344;-70
2023/04/21 05:40:58;;;;;;;11.80;3.20;;;;;;;10.23;69.93;99433.69;105756;1257;60306;-70
2023/04/21 05:43:26;;;;;;;11.20;3.30;;;;;;;10.24;69.79;99432.41;105803;1256;66767;-67
2023/04/21 05:45:54;;;;;;;11.20;3.30;;;;;;;10.24;69.72;99423.07;105774;1254;60345;-67
2023/04/21 05:48:23;;;;;;;13.50;3.40;;;;;;;10.23;69.65;99424.56;105685;1253;65593;-66
2023/04/21 05:50:51;;;;;;;15.80;3.10;;;;;;;10.22;69.65;99426.39;105695;1255;60472;-70
2023/04/21 05:53:19;;;;;;;13.50;3.30;;;;;;;10.23;69.59;99427.76;105741;1257;60440;-69
2023/04/21 05:55:50;;;;;;;8.50;3.30;;;;;;;10.24;69.49;99427.59;105501;1254;65552;-69
2023/04/21 05:58:18;;;;;;;10.20;3.00;;;;;;;10.26;69.42;99428.30;106157;1254;60545;-69
2023/04/21 06:00:47;;;;;;;12.60;3.10;;;;;;;10.28;69.49;99425.99;105660;1254;65580;-69
2023/04/21 06:03:16;;;;;;;10.50;3.00;;;;;;;10.31;69.33;99424.54;105781;1256;60435;-68
2023/04/21 06:05:46;;;;;;;11.40;3.20;;;;;;;10.31;69.32;99421.90;105691;1254;60469;-72
2023/04/21 06:08:14;;;;;;;10.00;2.80;;;;;;;10.29;69.33;99421.16;105741;1257;66750;-69
2023/04/21 06:10:43;;;;;;;11.90;2.90;;;;;;;10.28;69.20;99426.72;105914;1254;60408;-69
2023/04/21 06:13:11;;;;;;;9.90;3.20;;;;;;;10.29;69.29;99425.21;105734;1257;65552;-69
2023/04/21 06:15:39;;;;;;;14.50;3.30;;;;;;;10.29;69.19;99424.30;105548;1253;60612;-68
2023/04/21 06:18:07;;;;;;;11.40;3.30;;;;;;;10.31;69.30;99430.34;105595;1256;59408;-68
2023/04/21 06:20:36;;;;;;;5.90;3.10;;;;;;;10.31;69.35;99432.39;105661;1254;66793;-69
2023/04/21 06:23:04;;;;;;;6.80;3.10;;;;;;;10.33;69.36;99434.58;105551;1254;60442;-69
2023/04/21 06:25:33;;;;;;;13.60;3.90;;;;;;;10.35;69.33;99437.80;106093;1253;65586;-68
2023/04/21 06:28:01;;;;;;;11.10;3.70;;;;;;;10.35;69.33;99439.30;105769;1253;60386;-68
2023/04/21 06:30:29;;;;;;;9.30;3.60;;;;;;;10.38;69.26;99438.86;105938;1254;61171;-69
2023/04/21 06:32:58;;;;;;;9.80;3.30;;;;;;;10.39;69.27;99440.69;105761;1254;65871;-70
2023/04/21 06:35:27;;;;;;;9.70;3.50;;;;;;;10.40;69.41;99442.36;105891;1257;60458;-68
2023/04/21 06:37:55;;;;;;;9.50;3.00;;;;;;;10.43;69.35;99442.41;105501;1254;65350;-69
2023/04/21 06:40:23;;;;;;;6.60;3.10;;;;;;;10.45;69.33;99442.93;105445;1258;60512;-71
2023/04/21 06:42:52;;;;;;;9.80;3.50;;;;;;;10.47;69.39;99443.81;105513;1254;59440;-67
2023/04/21 06:45:20;;;;;;;8.60;3.40;;;;;;;10.49;69.28;99442.35;105478;1256;66876;-70
2023/04/21 06:47:48;;;;;;;15.10;3.90;;;;;;;10.50;69.32;99439.63;105620;1257;60424;-69
2023/04/21 06:50:17;;;;;;;10.40;3.60;;;;;;;10.49;69.28;99443.08;105406;1254;65848;-68
2023/04/21 06:52:45;;;;;;;8.00;3.20;;;;;;;10.50;69.23;99443.35;105495;1254;60554;-70
2023/04/21 06:55:15;;;;;;;13.40;3.80;;;;;;;10.51;69.29;99447.60;105532;1256;60444;-73
2023/04/21 06:57:47;;;;;;;9.30;3.40;;;;;;;10.54;69.34;99446.46;106225;1254;65700;-71
2023/04/21 07:00:17;;;;;;;11.70;3.50;;;;;;;10.57;69.34;99451.17;105748;1254;60462;-70
2023/04/21 07:02:46;;;;;;;11.30;3.10;;;;;;;10.56;69.27;99452.98;105600;1259;65522;-71
2023/04/21 07:05:15;;;;;;;7.60;3.10;;;;;;;10.57;69.26;99454.26;105951;1254;60337;-70
2023/04/21 07:07:43;;;;;;;10.50;3.10;;;;;;;10.60;69.33;99455.43;105708;1254;60489;-71
2023/04/21 07:10:17;;;;;;;12.50;3.00;;;;;;;10.59;69.33;99454.73;105981;1256;66748;-72
2023/04/21 07:12:47;;;;;;;8.90;3.80;;;;;;;10.61;69.41;99454.30;105849;1256;69403;-70
2023/04/21 07:15:16;;;;;;;7.40;3.20;;;;;;;10.62;69.36;99454.73;105738;1259;64601;-72
2023/04/21 07:17:57;;;;;;;8.90;3.10;;;;;;;10.62;69.38;99454.70;105378;1254;61012;-69
2023/04/21 07:20:26;;;;;;;9.60;3.40;;;;;;;10.62;69.45;99452.05;105863;1254;60309;-70
2023/04/21 07:22:55;;;;;;;10.30;3.70;;;;;;;10.60;69.48;99455.38;106032;1253;66674;-70
2023/04/21 07:25:23;;;;;;;9.00;3.10;;;;;;;10.60;69.50;99458.04;105873;1257;60374;-70
2023/04/21 07:27:52;;;;;;;5.20;2.60;;;;;;;10.60;69.61;99451.66;105632;1254;64449;-70
2023/04/21 07:30:21;;;;;;;10.30;3.30;;;;;;;10.62;69.68;99453.27;105659;1254;60517;-70
2023/04/21 07:32:50;;;;;;;12.20;3.40;;;;;;;10.65;69.65;99456.67;105373;1254;60331;-71
2023/04/21 07:35:19;;;;;;;8.60;3.40;;;;;;;10.67;69.72;99455.08;105587;1259;66723;-69
2023/04/21 07:37:47;;;;;;;12.70;3.40;;;;;;;10.71;69.74;99455.32;106208;1256;60465;-70
2023/04/21 07:40:15;;;;;;;9.50;3.80;;;;;;;10.73;69.83;99457.52;105939;1254;67304;-71
2023/04/21 07:42:49;;;;;;;9.40;3.30;;;;;;;10.75;69.89;99457.48;106134;1254;60534;-72
2023/04/21 07:45:17;;;;;;;9.30;3.60;;;;;;;10.79;69.89;99457.26;105693;1256;59739;-69
2023/04/21 07:47:46;;;;;;;9.10;3.40;;;;;;;10.83;69.96;99454.08;105427;1259;66597;-69
2023/04/21 07:50:15;;;;;;;14.60;3.70;;;;;;;10.86;70.02;99457.30;105913;1256;60539;-71
2023/04/21 07:52:43;;;;;;;8.70;2.90;;;;;;;10.88;69.96;99453.77;105618;1254;64500;-71
2023/04/21 07:55:12;;;;;;;7.40;3.30;;;;;;;10.91;69.90;99455.46;105649;1257;60540;-72
2023/04/21 07:57:41;;;;;;;10.40;3.30;;;;;;;10.93;69.87;99454.98;105611;1254;60959;-68
2023/04/21 08:00:10;;;;;;;10.00;3.10;;;;;;;10.96;69.91;99457.68;105642;1257;66725;-69
2023/04/21 08:02:42;;;;;;;8.40;3.10;;;;;;;10.97;69.88;99457.50;105585;1254;60552;-69
2023/04/21 08:05:11;;;;;;;9.50;3.20;;;;;;;10.96;69.88;99461.21;105683;1254;65500;-70
2023/04/21 08:07:40;;;;;;;43.60;6.50;;;;;;;10.97;70.00;99461.95;105732;1254;60504;-70
2023/04/21 08:10:09;;;;;;;192.50;20.20;;;;;;;10.98;70.16;99458.84;105777;1254;60514;-74
2023/04/21 08:12:40;;;;;;;68.80;9.20;;;;;;;11.00;70.10;99458.66;105565;1256;66723;-70
2023/04/21 08:15:11;;;;;;;19.30;4.10;;;;;;;11.02;70.04;99456.16;105680;1254;60492;-69
2023/04/21 08:17:39;;;;;;;62.20;8.20;;;;;;;11.04;70.00;99460.79;105337;1254;65329;-69
2023/04/21 08:20:09;;;;;;;33.40;5.70;;;;;;;11.04;70.19;99460.17;105549;1254;60446;-71
2023/04/21 08:22:38;;;;;;;21.30;4.20;;;;;;;11.07;70.10;99458.55;105397;1254;60427;-72
2023/04/21 08:25:07;;;;;;;52.00;6.10;;;;;;;11.11;70.14;99457.09;105203;1254;66679;-70
2023/04/21 08:27:38;;;;;;;47.10;6.60;;;;;;;11.15;70.14;99453.82;105332;1254;61064;-69
2023/04/21 08:30:07;;;;;;;104.20;11.90;;;;;;;11.21;70.26;99451.35;105955;1254;63980;-70
2023/04/21 08:32:36;;;;;;;61.00;7.70;;;;;;;11.25;70.27;99452.35;105558;1259;60511;-69
2023/04/21 08:35:05;;;;;;;199.00;20.80;;;;;;;11.27;70.21;99451.43;105623;1254;60450;-68
2023/04/21 08:37:36;;;;;;;15.40;4.50;;;;;;;11.32;70.35;99455.42;105495;1255;66801;-72
2023/04/21 08:40:05;;;;;;;10.40;3.40;;;;;;;11.34;70.22;99451.82;105639;1254;60455;-70
2023/04/21 08:42:33;;;;;;;8.60;3.10;;;;;;;11.39;70.11;99452.60;105707;1258;66255;-70
2023/04/21 08:45:03;;;;;;;8.00;3.20;;;;;;;11.40;70.22;99458.11;106336;1253;60627;-70
2023/04/21 08:47:33;;;;;;;11.10;3.20;;;;;;;11.41;70.00;99458.77;105599;1253;60489;-71
2023/04/21 08:50:01;;;;;;;10.60;3.30;;;;;;;11.41;69.95;99456.13;105621;1256;66570;-70
2023/04/21 08:52:29;;;;;;;7.20;3.00;;;;;;;11.42;69.97;99455.31;105646;1254;60460;-69
2023/04/21 08:54:59;;;;;;;11.60;3.30;;;;;;;11.43;69.85;99456.52;105667;1254;65610;-69
2023/04/21 08:57:27;;;;;;;5.80;3.10;;;;;;;11.48;69.78;99453.15;105604;1254;60407;-72
2023/04/21 08:59:57;;;;;;;7.80;3.10;;;;;;;11.50;69.87;99454.37;105629;1254;59505;-70
2023/04/21 09:02:26;;;;;;;12.30;3.50;;;;;;;11.50;69.85;99450.77;105433;1254;67134;-69
2023/04/21 09:04:55;;;;;;;10.70;3.10;;;;;;;11.52;69.84;99450.45;105634;1254;60472;-66
2023/04/21 09:07:35;;;;;;;6.40;3.00;;;;;;;11.54;69.78;99454.47;105740;1254;65218;-71
2023/04/21 09:10:04;;;;;;;6.10;3.10;;;;;;;11.55;69.66;99455.30;105566;1259;60449;-70
2023/04/21 09:12:34;;;;;;;7.80;2.90;;;;;;;11.55;69.68;99453.32;105652;1253;60463;-71
2023/04/21 09:15:07;;;;;;;48.10;6.80;;;;;;;11.57;69.50;99453.86;105641;1254;66734;-68
2023/04/21 09:17:37;;;;;;;55.20;6.00;;;;;;;11.57;69.42;99452.61;105909;1256;60830;-70
2023/04/21 09:20:20;;;;;;;17.80;3.70;;;;;;;11.60;69.49;99455.27;105708;1254;65268;-71
2023/04/21 09:22:50;;;;;;;9.30;4.10;;;;;;;11.63;69.35;99455.84;105655;1255;60574;-70
2023/04/21 09:25:20;;;;;;;41.90;5.20;;;;;;;11.65;69.31;99456.81;105772;1254;60423;-68
2023/04/21 09:27:48;;;;;;;26.00;3.70;;;;;;;11.68;69.38;99452.23;105510;1256;66517;-68
2023/04/21 09:30:17;;;;;;;72.90;9.30;;;;;;;11.70;69.25;99449.94;106131;1254;60717;-70
2023/04/21 09:32:46;;;;;;;46.70;6.30;;;;;;;11.71;69.25;99450.80;107084;1254;64183;-70
2023/04/21 09:35:14;;;;;;;7.30;2.70;;;;;;;11.76;69.14;99452.27;105596;1254;60612;-71
2023/04/21 09:37:43;;;;;;;7.50;2.60;;;;;;;11.79;69.08;99449.17;105642;1252;60447;-72
2023/04/21 09:40:16;;;;;;;8.40;2.40;;;;;;;11.80;68.91;99447.20;105565;1256;66383;-71
2023/04/21 09:42:45;;;;;;;6.00;2.30;;;;;;;11.76;68.64;99447.70;105683;1254;60553;-71
2023/04/21 09:45:13;;;;;;;7.50;2.30;;;;;;;11.74;68.54;99447.15;105739;1256;65326;-70
2023/04/21 09:47:50;;;;;;;14.70;3.50;;;;;;;11.76;68.49;99445.89;105852;1254;60515;-70
2023/04/21 09:50:18;;;;;;;40.80;4.50;;;;;;;11.79;68.42;99440.59;105787;1252;60680;-72
2023/04/21 09:53:06;;;;;;;7.80;2.60;;;;;;;11.80;68.48;99442.39;105652;1259;66464;-70
2023/04/21 09:55:35;;;;;;;40.10;5.20;;;;;;;11.81;68.47;99443.91;105588;1259;60619;-72
2023/04/21 09:58:04;;;;;;;41.90;5.30;;;;;;;11.82;68.20;99445.60;105507;1257;65347;-71
2023/04/21 10:00:38;;;;;;;6.70;2.70;;;;;;;11.81;68.18;99445.80;105698;1251;60360;-71
2023/04/21 10:03:09;;;;;;;6.30;2.70;;;;;;;11.80;68.09;99451.98;105681;1251;60446;-71
2023/04/21 10:05:38;;;;;;;5.80;2.20;;;;;;;11.77;68.00;99451.64;105569;1254;65595;-71
2023/04/21 10:08:10;;;;;;;6.40;2.20;;;;;;;11.76;67.91;99454.36;105806;1254;60421;-72
2023/04/21 10:10:39;;;;;;;6.00;2.30;;;;;;;11.77;67.86;99459.05;106226;1253;65510;-72
2023/04/21 10:13:13;;;;;;;4.60;2.20;;;;;;;11.77;67.77;99458.90;106045;1254;60444;-73
2023/04/21 10:23:00;;;;;;;10.70;2.70;;;;;;;11.77;67.86;99468.52;102580;1295;600862;-70
2023/04/21 10:25:29;;;;;;;6.30;2.30;;;;;;;11.78;68.07;99464.12;104607;1272;59261;-71
2023/04/21 10:27:57;;;;;;;7.00;2.00;;;;;;;11.80;68.12;99465.91;104775;1267;59369;-71
2023/04/21 10:30:27;;;;;;;7.90;2.20;;;;;;;11.80;68.13;99468.34;104961;1269;65363;-75
2023/04/21 10:33:05;;;;;;;7.30;1.90;;;;;;;11.82;68.28;99469.77;105063;1270;59950;-71
2023/04/21 10:36:04;;;;;;;7.00;1.90;;;;;;;11.83;68.34;99471.23;105221;1257;157095;-72
2023/04/21 10:38:42;;;;;;;6.90;2.00;;;;;;;11.82;68.31;99474.17;105530;1257;59397;-72
2023/04/21 10:41:30;;;;;;;4.70;1.90;;;;;;;11.80;68.28;99473.31;105522;1262;59320;-73
2023/04/21 10:44:20;;;;;;;6.10;1.90;;;;;;;11.77;68.40;99474.55;105355;1256;63830;-73
2023/04/21 10:46:53;;;;;;;6.10;1.90;;;;;;;11.77;68.47;99474.95;105925;1258;59196;-71
2023/04/21 10:49:25;;;;;;;4.90;2.10;;;;;;;11.74;68.51;99472.89;105576;1257;65415;-70
2023/04/21 10:52:03;;;;;;;5.20;1.60;;;;;;;11.74;68.60;99474.47;105388;1263;59583;-73
2023/04/21 10:54:46;;;;;;;5.00;1.60;;;;;;;11.72;68.69;99476.44;105717;1257;59717;-70
2023/04/21 10:57:16;;;;;;;;;;;;;;;11.70;68.53;99476.48;105486;1255;66647;-70
2023/04/21 10:59:46;;;;;;;5.00;1.90;;;;;;;11.67;68.54;99476.95;105426;1260;60257;-71
2023/04/21 11:02:18;;;;;;;5.80;2.00;;;;;;;11.66;68.69;99482.16;105484;1257;65204;-72
2023/04/21 11:04:50;;;;;;;4.10;1.80;;;;;;;11.67;68.82;99482.13;105447;1257;59570;-71
2023/04/21 11:07:21;;;;;;;6.00;2.00;;;;;;;11.68;68.89;99482.05;105437;1255;59624;-73
2023/04/21 11:09:56;;;;;;;3.70;1.90;;;;;;;11.69;68.90;99487.05;105429;1255;64929;-73
2023/04/21 11:12:31;;;;;;;5.60;2.20;;;;;;;11.70;69.11;99485.19;105390;1259;59492;-71
2023/04/21 11:15:02;;;;;;;3.00;1.90;;;;;;;11.73;69.15;99487.89;106317;1257;64608;-72
2023/04/21 11:17:31;;;;;;;5.90;2.00;;;;;;;11.74;68.98;99488.81;105714;1259;59746;-71
2023/04/21 11:20:00;;;;;;;6.60;2.00;;;;;;;11.75;68.99;99492.00;105653;1259;59541;-71
2023/04/21 11:22:28;;;;;;;6.90;1.90;;;;;;;11.76;68.95;99493.52;105702;1257;65716;-71
2023/04/21 11:24:57;;;;;;;5.60;2.10;;;;;;;11.75;68.90;99498.23;105610;1258;59672;-70
2023/04/21 11:27:27;;;;;;;5.90;2.00;;;;;;;11.75;68.96;99500.73;105451;1257;65558;-70
2023/04/21 11:29:56;;;;;;;5.00;2.20;;;;;;;11.74;69.03;99500.95;105661;1259;59605;-70
2023/04/21 11:32:24;;;;;;;3.60;1.70;;;;;;;11.74;68.93;99502.34;105666;1255;59643;-70
2023/04/21 11:34:53;;;;;;;7.40;2.20;;;;;;;11.74;68.91;99500.12;105615;1257;65664;-70
2023/04/21 11:37:24;;;;;;;3.70;1.90;;;;;;;11.74;68.91;99504.32;105437;1257;59957;-71
2023/04/21 11:39:59;;;;;;;4.30;1.80;;;;;;;11.73;68.85;99500.15;105527;1260;64275;-70
2023/04/21 11:42:28;;;;;;;5.80;1.80;;;;;;;11.73;68.91;99501.54;105569;1257;59736;-70